createdAt,value
2019-03-20T00:03:44.791Z,33.57
2019-03-20T00:13:49.876Z,34.70
2019-03-20T00:23:54.639Z,32.00
2019-03-20T00:33:59.562Z,31.70
2019-03-20T00:44:04.805Z,30.67
2019-03-20T00:54:09.778Z,31.33
2019-03-20T01:04:14.646Z,29.77
2019-03-20T01:14:20.271Z,28.83
2019-03-20T01:24:25.388Z,31.30
2019-03-20T01:34:30.177Z,28.27
2019-03-20T01:44:35.342Z,31.17
2019-03-20T01:54:41.001Z,31.17
2019-03-20T02:04:46.695Z,27.30
2019-03-20T02:14:51.788Z,31.80
2019-03-20T02:24:57.194Z,31.77
2019-03-20T02:35:02.308Z,33.20
2019-03-20T02:45:08.309Z,33.07
2019-03-20T02:55:13.678Z,35.97
2019-03-20T03:05:18.811Z,35.67
2019-03-20T03:15:23.754Z,31.47
2019-03-20T03:25:28.835Z,31.87
2019-03-20T03:35:33.798Z,36.97
2019-03-20T03:45:38.543Z,31.20
2019-03-20T03:55:43.541Z,30.70
2019-03-20T04:05:49.629Z,35.10
2019-03-20T04:15:54.708Z,33.73
2019-03-20T04:25:59.584Z,41.17
2019-03-20T04:36:04.282Z,34.30
2019-03-20T04:46:09.510Z,36.13
2019-03-20T04:56:14.502Z,35.97
2019-03-20T05:06:20.358Z,33.60
2019-03-20T05:16:25.423Z,29.03
2019-03-20T05:26:30.554Z,25.40
2019-03-20T05:36:35.363Z,32.07
2019-03-20T05:46:40.200Z,29.37
2019-03-20T05:56:45.524Z,30.90
2019-03-20T06:06:50.995Z,25.63
2019-03-20T06:16:56.161Z,31.27
2019-03-20T06:27:01.055Z,26.27
2019-03-20T06:37:05.862Z,28.30
2019-03-20T06:47:10.788Z,27.80
2019-03-20T06:57:15.914Z,29.70
2019-03-20T07:07:23.149Z,24.50
2019-03-20T07:17:28.071Z,23.07
2019-03-20T07:27:34.178Z,24.67
2019-03-20T07:37:39.045Z,21.97
2019-03-20T07:47:44.091Z,19.43
2019-03-20T07:57:49.925Z,23.03
2019-03-20T08:07:54.899Z,17.17
2019-03-20T08:18:00.041Z,14.27
2019-03-20T08:28:05.083Z,17.13
2019-03-20T08:38:17.701Z,8.10
2019-03-20T08:48:16.567Z,16.70
2019-03-20T08:58:22.516Z,14.20
2019-03-20T09:08:29.582Z,10.30
2019-03-20T09:18:33.910Z,13.13
2019-03-20T09:28:38.904Z,10.87
2019-03-20T09:38:44.018Z,13.33
2019-03-20T09:48:50.247Z,12.53
2019-03-20T09:58:55.232Z,14.23
2019-03-20T10:09:01.881Z,13.50
2019-03-20T10:19:08.221Z,11.20
2019-03-20T10:29:13.234Z,14.27
2019-03-20T10:39:18.046Z,12.60
2019-03-20T10:49:23.060Z,10.37
2019-03-20T10:59:27.983Z,7.20
2019-03-20T11:09:33.115Z,9.93
2019-03-20T11:19:37.858Z,9.63
2019-03-20T11:29:42.602Z,9.10
2019-03-20T11:39:47.569Z,10.37
2019-03-20T11:49:52.270Z,7.80
2019-03-20T11:59:57.085Z,9.50
2019-03-20T12:10:02.106Z,14.43
2019-03-20T12:20:13.393Z,12.50
2019-03-20T12:30:19.297Z,14.83
2019-03-20T12:40:24.818Z,11.60
2019-03-20T12:50:30.947Z,11.97
2019-03-20T13:00:35.955Z,13.17
2019-03-20T13:10:40.893Z,9.70
2019-03-20T13:20:45.800Z,14.50
2019-03-20T13:30:53.272Z,8.87
2019-03-20T13:40:59.151Z,8.90
2019-03-20T13:51:04.253Z,10.17
2019-03-20T14:01:08.831Z,8.83
2019-03-20T14:11:14.103Z,9.97
2019-03-20T14:21:19.700Z,7.73
2019-03-20T14:31:26.148Z,10.20
2019-03-20T14:41:31.274Z,14.17
2019-03-20T14:51:36.476Z,11.23
2019-03-20T15:01:41.432Z,10.80
2019-03-20T15:11:46.375Z,11.77
2019-03-20T15:21:51.096Z,15.23
2019-03-20T15:31:55.988Z,13.33
2019-03-20T15:42:00.854Z,12.70
2019-03-20T15:52:05.774Z,13.17
2019-03-20T16:02:10.712Z,16.93
2019-03-20T16:12:15.556Z,14.90
2019-03-20T16:22:21.361Z,15.20
2019-03-20T16:32:26.467Z,13.10
2019-03-20T16:42:31.934Z,19.13
2019-03-20T16:52:37.126Z,18.80
2019-03-20T17:02:42.930Z,23.13
2019-03-20T17:12:48.064Z,19.47
2019-03-20T17:22:52.897Z,20.27
2019-03-20T17:32:58.400Z,23.30
2019-03-20T17:43:03.176Z,20.47
2019-03-20T17:53:09.120Z,21.97
2019-03-20T18:03:14.236Z,18.57
2019-03-20T18:13:19.045Z,18.10
2019-03-20T18:23:25.449Z,55.17
2019-03-20T18:33:30.459Z,19.70
2019-03-20T18:43:36.637Z,26.50
2019-03-20T18:53:41.702Z,20.27
2019-03-20T19:03:57.507Z,21.63
2019-03-20T19:14:02.866Z,24.53
2019-03-20T19:24:08.074Z,22.60
2019-03-20T19:34:13.161Z,23.80
2019-03-20T19:44:18.576Z,34.27
2019-03-20T19:54:24.255Z,29.27
2019-03-20T20:04:29.821Z,33.03
2019-03-20T20:14:34.844Z,22.87
2019-03-20T20:24:42.465Z,33.10
2019-03-20T20:34:47.417Z,29.97
2019-03-20T20:44:52.420Z,33.67
2019-03-20T20:54:57.199Z,23.53
2019-03-20T21:05:02.057Z,24.70
2019-03-20T21:15:07.233Z,22.60
2019-03-20T21:25:12.558Z,16.13
2019-03-20T21:35:36.442Z,29.47
2019-03-20T21:45:55.160Z,20.97
2019-03-20T21:56:18.501Z,20.47
2019-03-20T22:06:41.433Z,26.10
2019-03-20T22:17:23.738Z,18.30
2019-03-20T22:27:35.522Z,22.20
2019-03-20T22:37:40.764Z,20.10
2019-03-20T22:47:59.816Z,18.90
2019-03-20T22:58:19.600Z,19.83
2019-03-20T23:08:25.374Z,19.17
2019-03-20T23:18:30.576Z,20.33
2019-03-20T23:28:36.444Z,18.37
2019-03-20T23:38:41.994Z,24.03
2019-03-20T23:48:50.044Z,20.63
2019-03-20T23:58:55.273Z,23.47
